Time;durP1;ratioP1;P1;durP2;ratioP2;P2;SDS_P1;SDS_P2;PMS_P1;PMS_P2;Temp;Humidity;BMP_temperature;BMP_pressure;BME280_temperature;BME280_humidity;BME280_pressure;Samples;Min_cycle;Max_cycle;Signal;HPM_P1;HPM_P2
2021/08/18 00:00:46;;;;;;;2.37;1.30;;;;;;;12.28;77.94;98462.34;1783797;78;20443;-70
2021/08/18 00:03:14;;;;;;;2.37;1.00;;;;;;;12.25;77.83;98460.78;1754357;78;21151;-70
2021/08/18 00:05:42;;;;;;;1.98;1.02;;;;;;;12.25;77.93;98460.78;1777119;79;20910;-70
2021/08/18 00:08:10;;;;;;;2.62;1.25;;;;;;;12.25;77.96;98460.78;1782232;78;21011;-70
2021/08/18 00:10:38;;;;;;;1.80;0.95;;;;;;;12.24;78.02;98459.13;1775884;79;21017;-69
2021/08/18 00:13:08;;;;;;;1.57;1.32;;;;;;;12.25;78.08;98455.55;1782660;78;21006;-70
2021/08/18 00:15:35;;;;;;;3.65;1.55;;;;;;;12.25;78.11;98452.93;1780567;79;21033;-70
2021/08/18 00:18:03;;;;;;;1.92;1.42;;;;;;;12.25;78.13;98447.69;1783243;79;21016;-70
2021/08/18 00:20:32;;;;;;;1.30;1.20;;;;;;;12.24;78.19;98434.26;1776256;78;21435;-69
2021/08/18 00:22:59;;;;;;;1.57;1.30;;;;;;;12.23;78.28;98435.67;1781258;79;20906;-69
2021/08/18 00:25:26;;;;;;;2.87;1.70;;;;;;;12.19;78.29;98448.16;1780845;79;20965;-69
2021/08/18 00:27:54;;;;;;;1.42;1.27;;;;;;;12.18;78.35;98456.94;1777294;78;20904;-70
2021/08/18 00:30:22;;;;;;;2.00;1.40;;;;;;;12.18;78.47;98446.47;1779356;78;20993;-70
2021/08/18 00:32:48;;;;;;;1.32;1.22;;;;;;;12.18;78.39;98441.23;1761866;78;21139;-70
2021/08/18 00:35:15;;;;;;;1.80;1.45;;;;;;;12.17;78.44;98434.34;1763445;80;20978;-69
2021/08/18 00:37:42;;;;;;;1.97;1.63;;;;;;;12.15;78.56;98440.63;1762672;80;20923;-69
2021/08/18 00:40:10;;;;;;;2.17;1.37;;;;;;;12.12;78.59;98433.84;1770915;80;20948;-70
2021/08/18 00:42:39;;;;;;;1.72;1.17;;;;;;;12.09;78.61;98444.54;1767257;80;20934;-69
2021/08/18 00:45:07;;;;;;;1.30;1.20;;;;;;;12.07;78.64;98456.89;1771576;80;21465;-70
2021/08/18 00:47:51;;;;;;;2.33;1.25;;;;;;;12.05;78.69;98470.58;1764553;80;21033;-69
2021/08/18 00:50:22;;;;;;;1.90;1.20;;;;;;;12.04;78.67;98467.59;1771216;79;20894;-70
2021/08/18 00:52:50;;;;;;;2.90;1.07;;;;;;;12.03;78.74;98467.23;1767999;79;21029;-69
2021/08/18 00:55:19;;;;;;;2.30;1.30;;;;;;;12.00;78.79;98468.77;1760918;80;21082;-70
2021/08/18 00:57:46;;;;;;;1.65;1.12;;;;;;;11.98;78.77;98468.03;1774354;80;21071;-69
2021/08/18 01:00:16;;;;;;;2.47;1.70;;;;;;;11.92;78.88;98464.56;1765045;80;21084;-70
2021/08/18 01:02:46;;;;;;;2.17;1.40;;;;;;;11.89;78.80;98466.10;1763702;79;21148;-70
2021/08/18 01:05:23;;;;;;;2.30;1.30;;;;;;;11.85;78.92;98467.63;1768070;78;21492;-69
2021/08/18 01:07:52;;;;;;;1.80;1.30;;;;;;;11.85;79.07;98479.41;1766488;79;22221;-70
2021/08/18 01:10:26;;;;;;;1.70;1.20;;;;;;;11.83;79.25;98468.17;1760469;80;21083;-70
2021/08/18 01:12:54;;;;;;;1.55;1.10;;;;;;;11.80;79.12;98480.65;1761689;80;20995;-70
2021/08/18 01:15:26;;;;;;;1.30;1.00;;;;;;;11.76;79.12;98474.81;1769155;80;21103;-70
2021/08/18 01:17:56;;;;;;;0.90;0.80;;;;;;;11.76;79.16;98484.41;1765474;80;21217;-70
2021/08/18 01:20:39;;;;;;;1.75;0.90;;;;;;;11.75;79.21;98488.81;1764515;80;20993;-69
2021/08/18 01:23:10;;;;;;;1.50;1.10;;;;;;;11.75;79.19;98501.89;1758832;80;21368;-70
2021/08/18 01:25:40;;;;;;;1.80;1.00;;;;;;;11.77;79.24;98496.08;1765167;80;21009;-70
2021/08/18 01:28:08;;;;;;;1.65;0.95;;;;;;;11.82;79.30;98499.20;1762366;80;21650;-70
2021/08/18 01:30:37;;;;;;;2.20;0.80;;;;;;;11.86;79.28;98504.59;1762961;80;21143;-69
2021/08/18 01:33:14;;;;;;;1.05;0.60;;;;;;;11.89;79.23;98510.56;1763743;79;21048;-70
2021/08/18 01:35:44;;;;;;;1.25;0.75;;;;;;;11.90;79.19;98499.14;1762239;79;21090;-70
2021/08/18 01:38:13;;;;;;;0.85;0.50;;;;;;;11.88;79.18;98495.35;1763190;79;20997;-70
2021/08/18 01:40:41;;;;;;;1.27;0.57;;;;;;;11.80;79.13;98498.47;1761714;79;21056;-70
2021/08/18 01:43:08;;;;;;;0.68;0.47;;;;;;;11.76;79.22;98498.34;1754849;79;21028;-69
2021/08/18 01:45:42;;;;;;;0.70;0.65;;;;;;;11.73;79.30;98493.30;1756053;79;21002;-70
2021/08/18 01:48:13;;;;;;;1.47;0.50;;;;;;;11.70;79.27;98490.91;1760778;79;21170;-70
2021/08/18 01:50:41;;;;;;;0.45;0.45;;;;;;;11.67;79.39;98492.92;1760934;80;21025;-70
2021/08/18 01:53:10;;;;;;;1.50;0.60;;;;;;;11.68;79.57;98495.44;1760716;79;21579;-70
2021/08/18 01:55:36;;;;;;;2.00;0.88;;;;;;;11.67;79.65;98491.14;1775364;79;21052;-70
2021/08/18 01:58:03;;;;;;;1.87;0.70;;;;;;;11.69;79.75;98487.13;1749290;80;20981;-70
2021/08/18 02:00:31;;;;;;;2.22;1.25;;;;;;;11.70;79.79;98490.91;1764009;79;21132;-70
2021/08/18 02:02:58;;;;;;;1.37;0.70;;;;;;;11.73;79.85;98495.92;1750791;81;20952;-70
2021/08/18 02:05:26;;;;;;;6.33;1.47;;;;;;;11.77;79.93;98493.95;1743014;80;21265;-70
2021/08/18 02:07:54;;;;;;;7.33;1.27;;;;;;;11.81;80.04;98498.83;1757352;81;21623;-70
2021/08/18 02:10:22;;;;;;;4.60;1.47;;;;;;;11.87;80.01;98489.73;1774513;78;20994;-70
2021/08/18 02:12:49;;;;;;;4.35;1.60;;;;;;;11.93;80.11;98498.92;1763884;79;21637;-70
2021/08/18 02:15:19;;;;;;;;;;;;;;;11.98;80.17;98498.13;1764203;79;21651;-70
2021/08/18 02:17:45;;;;;;;2.55;1.50;;;;;;;12.01;80.36;98492.66;1761484;79;20434;-70
2021/08/18 02:20:17;;;;;;;3.33;1.50;;;;;;;12.05;80.30;98498.05;1759532;80;20896;-70
2021/08/18 02:22:44;;;;;;;3.22;1.80;;;;;;;12.11;80.37;98500.22;1788981;80;20946;-70
2021/08/18 02:25:11;;;;;;;;;;;;;;;12.16;80.36;98485.02;1777407;78;21094;-69
2021/08/18 02:27:39;;;;;;;7.22;2.50;;;;;;;12.22;80.55;98489.80;1770036;78;20147;-69
2021/08/18 02:30:09;;;;;;;3.85;1.77;;;;;;;12.25;80.44;98484.33;1777088;79;21508;-69
2021/08/18 02:32:36;;;;;;;5.80;2.20;;;;;;;12.29;80.50;98483.17;1777090;80;20948;-70
2021/08/18 02:35:04;;;;;;;6.20;2.52;;;;;;;12.35;80.51;98482.33;1759120;80;22336;-69
2021/08/18 02:37:31;;;;;;;6.72;2.35;;;;;;;12.38;80.62;98483.41;1773190;78;21249;-69
2021/08/18 02:39:57;;;;;;;3.67;1.82;;;;;;;12.43;80.64;98486.53;1781026;80;20967;-69
2021/08/18 02:42:24;;;;;;;3.52;1.98;;;;;;;12.46;80.63;98486.30;1772449;78;20946;-69
2021/08/18 02:44:51;;;;;;;4.53;2.40;;;;;;;12.49;80.67;98483.45;1768708;80;21020;-69
2021/08/18 02:47:18;;;;;;;4.53;2.10;;;;;;;12.56;80.67;98489.91;1769760;80;21037;-69
2021/08/18 02:49:44;;;;;;;4.70;2.40;;;;;;;12.57;80.69;98482.40;1775658;78;21078;-69
2021/08/18 02:52:11;;;;;;;7.67;2.03;;;;;;;12.59;80.70;98490.98;1788442;78;22214;-69
2021/08/18 02:54:38;;;;;;;4.93;2.30;;;;;;;12.62;80.74;98481.58;1794351;78;21036;-69
2021/08/18 02:57:05;;;;;;;4.40;1.92;;;;;;;12.65;80.72;98486.59;1781933;79;21042;-70
2021/08/18 02:59:32;;;;;;;3.73;2.00;;;;;;;12.68;80.77;98475.05;1784349;78;20939;-69
2021/08/18 03:01:59;;;;;;;4.03;2.00;;;;;;;12.70;80.70;98477.91;1794157;78;21476;-69
2021/08/18 03:04:26;;;;;;;5.85;2.37;;;;;;;12.70;80.65;98481.84;1796215;78;20961;-69
2021/08/18 03:06:54;;;;;;;4.72;2.05;;;;;;;12.68;80.80;98486.35;1763176;80;21140;-69
2021/08/18 03:09:23;;;;;;;5.42;2.55;;;;;;;12.69;80.92;98482.80;1772769;80;20938;-70
2021/08/18 03:11:53;;;;;;;4.80;2.45;;;;;;;12.69;80.89;98476.26;1782762;79;21029;-69
2021/08/18 03:14:20;;;;;;;6.35;2.15;;;;;;;12.71;81.04;98479.57;1779229;78;22050;-70
2021/08/18 03:16:48;;;;;;;5.25;2.30;;;;;;;12.73;81.03;98475.54;1781739;79;20945;-69
2021/08/18 03:19:15;;;;;;;5.90;2.20;;;;;;;12.74;80.96;98470.20;1776395;78;21520;-69
2021/08/18 03:21:41;;;;;;;4.08;2.62;;;;;;;12.74;80.94;98479.36;1777695;79;22515;-70
2021/08/18 03:24:08;;;;;;;6.37;2.55;;;;;;;12.75;80.91;98474.47;1774777;79;20883;-70
2021/08/18 03:26:35;;;;;;;5.97;2.40;;;;;;;12.77;81.00;98467.80;1778270;79;21438;-69
2021/08/18 03:29:01;;;;;;;5.95;2.45;;;;;;;12.79;81.04;98469.00;1779816;79;21025;-69
2021/08/18 03:31:28;;;;;;;3.83;2.50;;;;;;;12.76;81.04;98463.03;1779783;79;21022;-70
2021/08/18 03:33:54;;;;;;;6.80;2.60;;;;;;;12.76;81.07;98469.59;1765145;80;21200;-69
2021/08/18 03:36:21;;;;;;;4.97;2.17;;;;;;;12.76;81.07;98463.03;1766395;80;21047;-70
2021/08/18 03:38:49;;;;;;;5.42;2.30;;;;;;;12.76;81.10;98470.89;1762034;80;21685;-69
2021/08/18 03:41:15;;;;;;;3.90;2.15;;;;;;;12.74;81.13;98462.34;1765451;80;20964;-69
2021/08/18 03:43:42;;;;;;;6.87;2.55;;;;;;;12.76;81.23;98473.52;1767681;80;21023;-69
2021/08/18 03:46:09;;;;;;;7.65;3.10;;;;;;;12.78;81.51;98480.44;1762366;80;20950;-69
2021/08/18 03:48:36;;;;;;;4.97;2.05;;;;;;;12.80;81.32;98481.13;1758839;80;20912;-69
2021/08/18 03:51:03;;;;;;;4.55;2.30;;;;;;;12.83;81.27;98478.31;1765017;80;22333;-69
2021/08/18 03:53:30;;;;;;;5.22;1.87;;;;;;;12.84;81.27;98474.73;1775809;80;21621;-70
2021/08/18 03:55:57;;;;;;;5.08;2.05;;;;;;;12.84;81.25;98479.97;1786114;80;20966;-70
2021/08/18 03:58:24;;;;;;;6.42;3.08;;;;;;;12.84;81.25;98482.59;1771650;80;21106;-70
2021/08/18 04:00:50;;;;;;;4.62;2.80;;;;;;;12.85;81.34;98480.31;1770628;80;20946;-69
2021/08/18 04:03:17;;;;;;;6.87;2.30;;;;;;;12.85;81.27;98476.39;1759248;80;21492;-69
2021/08/18 04:05:44;;;;;;;3.45;2.00;;;;;;;12.86;81.31;98480.69;1764388;80;20926;-70
2021/08/18 04:08:11;;;;;;;3.50;1.80;;;;;;;12.87;81.38;98486.28;1765953;80;20977;-69
2021/08/18 04:10:38;;;;;;;4.17;2.25;;;;;;;12.88;81.34;98484.00;1761474;80;20957;-69
2021/08/18 04:13:05;;;;;;;7.45;2.58;;;;;;;12.87;81.36;98491.52;1763373;80;20959;-70
2021/08/18 04:15:39;;;;;;;4.30;2.22;;;;;;;12.84;81.44;98493.06;1763848;80;21455;-70
2021/08/18 04:18:07;;;;;;;9.65;3.75;;;;;;;12.84;81.44;98488.66;1772371;80;20939;-69
2021/08/18 04:20:35;;;;;;;5.85;2.67;;;;;;;12.84;81.44;98490.45;1767433;80;21721;-69
2021/08/18 04:23:02;;;;;;;;;;;;;;;12.83;81.44;98494.03;1766243;80;21094;-69
2021/08/18 04:25:28;;;;;;;;;;;;;;;12.83;81.55;98494.86;1770598;79;20073;-69
2021/08/18 04:27:55;;;;;;;9.87;2.77;;;;;;;12.82;81.67;98497.58;1766987;80;21154;-70
2021/08/18 04:30:22;;;;;;;6.95;2.75;;;;;;;12.83;81.61;98499.27;1770484;80;20942;-69
2021/08/18 04:32:50;;;;;;;5.05;2.22;;;;;;;12.82;81.60;98502.81;1767129;79;21519;-69
2021/08/18 04:35:18;;;;;;;6.22;2.70;;;;;;;12.84;81.62;98506.16;1768856;79;20966;-69
2021/08/18 04:37:45;;;;;;;4.90;2.45;;;;;;;12.84;81.70;98502.23;1773377;79;21646;-70
2021/08/18 04:40:14;;;;;;;7.97;2.70;;;;;;;12.85;81.63;98505.20;1770657;79;22306;-69
2021/08/18 04:42:44;;;;;;;6.45;2.67;;;;;;;12.87;81.63;98505.92;1778476;79;20930;-69
2021/08/18 04:45:13;;;;;;;5.47;2.75;;;;;;;12.88;81.67;98510.20;1774550;79;20942;-69
2021/08/18 04:47:40;;;;;;;4.10;2.17;;;;;;;12.87;81.59;98505.92;1769916;79;21021;-69
2021/08/18 04:50:10;;;;;;;4.28;2.45;;;;;;;12.87;81.67;98491.52;1766947;79;21002;-69
2021/08/18 04:52:37;;;;;;;12.40;2.42;;;;;;;12.86;81.69;98487.24;1772729;79;21921;-69
2021/08/18 04:55:06;;;;;;;6.10;2.70;;;;;;;12.88;81.69;98496.66;1770283;79;21477;-69
2021/08/18 04:57:32;;;;;;;7.05;2.47;;;;;;;12.89;81.68;98507.48;1774757;79;21152;-69
2021/08/18 04:59:59;;;;;;;5.73;2.43;;;;;;;12.90;81.75;98499.14;1772341;79;21018;-69
2021/08/18 05:02:26;;;;;;;9.50;2.70;;;;;;;12.92;81.72;98509.03;1776040;79;21477;-69
2021/08/18 05:04:53;;;;;;;6.22;2.67;;;;;;;12.95;81.76;98500.94;1769545;79;21514;-70
2021/08/18 05:07:19;;;;;;;5.20;2.55;;;;;;;12.95;81.74;98502.25;1775853;79;21065;-69
2021/08/18 05:09:46;;;;;;;5.35;2.90;;;;;;;12.96;81.81;98499.97;1774647;79;20955;-69
2021/08/18 05:12:13;;;;;;;7.85;2.90;;;;;;;12.93;81.74;98502.83;1780338;80;20990;-69
2021/08/18 05:14:40;;;;;;;6.83;2.45;;;;;;;12.92;81.82;98514.27;1766949;79;21021;-70
2021/08/18 05:17:06;;;;;;;7.07;3.10;;;;;;;12.91;81.83;98514.76;1766611;78;21067;-70
2021/08/18 05:19:33;;;;;;;7.00;2.90;;;;;;;12.91;81.79;98509.97;1781010;79;20915;-70
2021/08/18 05:22:06;;;;;;;7.20;2.75;;;;;;;12.92;81.83;98506.42;1773814;78;21006;-71
2021/08/18 05:24:34;;;;;;;5.65;2.90;;;;;;;12.91;81.81;98508.66;1777731;79;21536;-71
2021/08/18 05:27:01;;;;;;;4.70;2.30;;;;;;;12.92;81.84;98503.80;1785755;79;21001;-70
2021/08/18 05:29:27;;;;;;;6.63;3.10;;;;;;;12.92;81.90;98501.17;1784520;79;21081;-69
2021/08/18 05:31:54;;;;;;;6.00;2.80;;;;;;;12.92;81.89;98504.63;1779052;79;21088;-69
2021/08/18 05:34:21;;;;;;;6.35;2.33;;;;;;;12.93;81.89;98506.77;1780785;79;20997;-69
2021/08/18 05:36:47;;;;;;;4.62;2.77;;;;;;;12.94;81.92;98491.42;1780643;79;21510;-69
2021/08/18 05:39:14;;;;;;;8.33;2.93;;;;;;;12.95;81.92;98506.18;1790662;79;21066;-70
2021/08/18 05:41:41;;;;;;;6.83;3.07;;;;;;;12.95;81.92;98503.08;1779299;79;21489;-69
2021/08/18 05:44:07;;;;;;;6.37;2.60;;;;;;;12.98;81.99;98509.88;1748287;79;21036;-70
2021/08/18 05:46:35;;;;;;;9.18;2.83;;;;;;;13.01;81.92;98515.36;1754964;79;21273;-70
2021/08/18 05:49:02;;;;;;;8.70;3.47;;;;;;;13.03;81.94;98507.73;1783633;79;21076;-69
2021/08/18 05:51:28;;;;;;;11.50;3.25;;;;;;;13.03;81.89;98522.16;1779415;78;21056;-68
2021/08/18 05:53:55;;;;;;;8.57;3.43;;;;;;;13.04;82.00;98515.95;1808144;78;21522;-69
2021/08/18 05:56:21;;;;;;;11.47;2.73;;;;;;;13.06;81.90;98525.84;1783584;78;21582;-70
2021/08/18 05:58:48;;;;;;;7.53;2.83;;;;;;;13.09;81.92;98525.61;1788598;78;21000;-71
2021/08/18 06:01:15;;;;;;;9.10;2.57;;;;;;;13.13;81.91;98525.72;1805031;78;21005;-69
2021/08/18 06:03:45;;;;;;;8.40;3.23;;;;;;;13.17;81.87;98516.68;1800540;78;21365;-69
2021/08/18 06:06:21;;;;;;;10.58;3.80;;;;;;;13.20;81.84;98536.10;1807259;78;21060;-69
2021/08/18 06:08:47;;;;;;;8.55;2.83;;;;;;;13.22;81.79;98545.17;1801038;78;20977;-70
2021/08/18 06:11:14;;;;;;;10.27;3.57;;;;;;;13.27;81.75;98536.97;1781596;79;21709;-70
2021/08/18 06:13:41;;;;;;;8.70;3.27;;;;;;;13.29;81.79;98538.52;1785058;78;20930;-69
2021/08/18 06:16:08;;;;;;;5.30;2.62;;;;;;;13.34;81.71;98530.31;1782838;78;21606;-70
2021/08/18 06:18:35;;;;;;;5.58;2.80;;;;;;;13.37;81.72;98525.66;1784423;78;21176;-70
2021/08/18 06:21:01;;;;;;;7.97;2.43;;;;;;;13.37;81.60;98529.58;1799102;78;20933;-70
2021/08/18 06:23:31;;;;;;;5.33;3.02;;;;;;;13.38;81.59;98531.72;1789231;78;20943;-70
2021/08/18 06:25:57;;;;;;;10.82;3.10;;;;;;;13.37;81.55;98532.69;1797373;78;21038;-71
2021/08/18 06:28:25;;;;;;;7.20;2.97;;;;;;;13.45;81.72;98517.68;1775152;80;20962;-70
2021/08/18 06:30:53;;;;;;;7.62;2.58;;;;;;;13.45;81.52;98518.99;1804260;78;21081;-70
2021/08/18 06:33:20;;;;;;;5.10;3.00;;;;;;;13.45;81.52;98518.99;1814962;78;21009;-70
2021/08/18 06:35:47;;;;;;;8.68;2.83;;;;;;;13.58;81.42;98524.92;1806728;78;22185;-69
2021/08/18 06:38:13;;;;;;;8.58;2.77;;;;;;;13.65;81.48;98534.81;1818458;78;20922;-70
2021/08/18 06:40:40;;;;;;;6.05;2.60;;;;;;;13.68;81.33;98538.98;1809061;78;20966;-70
2021/08/18 06:43:07;;;;;;;4.83;2.97;;;;;;;13.69;81.23;98542.44;1815371;77;22330;-71
2021/08/18 06:45:34;;;;;;;5.20;3.23;;;;;;;13.69;81.22;98539.33;1815419;78;21115;-68
2021/08/18 06:48:01;;;;;;;7.45;2.87;;;;;;;13.72;81.25;98542.19;1814003;77;28144;-68
2021/08/18 06:50:28;;;;;;;6.55;2.72;;;;;;;13.76;81.30;98548.88;1817776;77;20950;-68
2021/08/18 06:52:55;;;;;;;7.60;3.25;;;;;;;13.91;81.27;98555.52;1823004;77;21032;-67
2021/08/18 06:55:21;;;;;;;5.70;2.80;;;;;;;13.99;81.11;98545.25;1823724;77;21401;-68
2021/08/18 06:57:48;;;;;;;7.77;3.20;;;;;;;14.04;80.97;98550.14;1816938;78;20930;-69
2021/08/18 07:00:16;;;;;;;;;;;;;;;14.07;80.97;98561.22;1813719;78;20914;-70
2021/08/18 07:02:46;;;;;;;8.73;3.33;;;;;;;14.13;80.85;98563.00;1811432;78;20491;-70
2021/08/18 07:05:14;;;;;;;9.75;3.60;;;;;;;14.15;80.76;98557.16;1815943;78;20988;-69
2021/08/18 07:07:43;;;;;;;5.35;2.83;;;;;;;14.13;80.59;98557.27;1803244;78;21148;-70
2021/08/18 07:10:12;;;;;;;5.03;2.77;;;;;;;14.15;80.70;98567.66;1772978;79;21626;-70
2021/08/18 07:12:39;;;;;;;9.45;3.65;;;;;;;14.10;80.47;98575.41;1811337;78;20989;-67
2021/08/18 07:15:07;;;;;;;9.83;3.60;;;;;;;14.02;80.42;98577.81;1779815;79;21009;-67
2021/08/18 07:17:34;;;;;;;7.72;3.15;;;;;;;13.94;80.37;98575.44;1792977;78;20993;-67
2021/08/18 07:20:01;;;;;;;4.80;3.00;;;;;;;13.84;80.26;98588.47;1800905;78;21089;-66
2021/08/18 07:22:28;;;;;;;5.20;3.40;;;;;;;13.81;80.45;98593.95;1784199;78;21024;-67
2021/08/18 07:24:55;;;;;;;7.93;3.80;;;;;;;13.77;80.49;98589.89;1764011;80;21566;-66
2021/08/18 07:27:21;;;;;;;9.55;3.52;;;;;;;13.73;80.48;98599.80;1776130;80;27127;-69
2021/08/18 07:29:48;;;;;;;5.20;3.07;;;;;;;13.73;80.60;98606.84;1796096;78;20887;-69
2021/08/18 07:32:15;;;;;;;7.40;3.05;;;;;;;13.74;80.47;98601.45;1815216;78;21259;-68
2021/08/18 07:34:41;;;;;;;5.42;2.95;;;;;;;13.71;80.41;98603.49;1766288;79;21159;-68
2021/08/18 07:37:08;;;;;;;4.73;2.87;;;;;;;13.71;80.35;98600.87;1795674;78;20991;-72
2021/08/18 07:39:35;;;;;;;4.78;3.50;;;;;;;13.69;80.35;98620.65;1776112;79;21730;-71
2021/08/18 07:42:02;;;;;;;7.20;3.37;;;;;;;13.68;80.33;98614.23;1772899;80;21108;-72
2021/08/18 07:44:28;;;;;;;7.00;3.40;;;;;;;13.66;80.40;98621.72;1771013;80;21291;-71
2021/08/18 07:46:55;;;;;;;7.00;3.20;;;;;;;13.69;80.39;98622.44;1779069;79;21485;-72
2021/08/18 07:49:22;;;;;;;7.87;2.93;;;;;;;13.71;80.40;98620.55;1783591;78;21693;-68
2021/08/18 07:51:48;;;;;;;6.30;2.92;;;;;;;13.73;80.32;98622.58;1803764;78;21479;-67
2021/08/18 07:54:15;;;;;;;6.50;3.30;;;;;;;13.74;80.19;98622.44;1776214;80;20953;-67
2021/08/18 07:56:42;;;;;;;8.30;4.03;;;;;;;13.62;80.29;98604.56;1776511;80;21943;-68
2021/08/18 07:59:08;;;;;;;6.60;3.47;;;;;;;13.71;80.16;98624.48;1802268;78;21057;-68
2021/08/18 08:01:36;;;;;;;7.03;3.27;;;;;;;13.63;80.14;98625.89;1805080;78;21741;-67
2021/08/18 08:04:03;;;;;;;7.35;3.98;;;;;;;13.64;80.32;98630.20;1773373;80;21088;-67
2021/08/18 08:06:32;;;;;;;7.70;3.92;;;;;;;13.70;80.32;98625.44;1801683;78;20929;-67
2021/08/18 08:08:59;;;;;;;6.42;3.40;;;;;;;13.74;80.27;98622.44;1800251;77;21287;-66
2021/08/18 08:11:26;;;;;;;5.57;3.23;;;;;;;13.80;80.33;98629.00;1773855;80;20931;-67
2021/08/18 08:13:54;;;;;;;5.83;3.75;;;;;;;13.90;80.28;98622.09;1804630;77;20929;-67
2021/08/18 08:16:20;;;;;;;;;;;;;;;14.00;80.21;98623.50;1785137;80;20934;-67
2021/08/18 08:18:47;;;;;;;17.73;4.80;;;;;;;14.14;80.18;98634.22;1747138;80;20140;-67
2021/08/18 08:21:14;;;;;;;7.47;3.77;;;;;;;14.27;80.24;98629.67;1779520;78;21448;-67
2021/08/18 08:23:42;;;;;;;5.80;3.85;;;;;;;14.32;79.72;98624.89;1820083;78;21517;-67
2021/08/18 08:26:08;;;;;;;7.87;3.87;;;;;;;14.38;79.89;98630.96;1815924;78;21016;-67
2021/08/18 08:28:35;;;;;;;23.02;6.50;;;;;;;14.46;79.96;98637.75;1810228;77;21025;-67
2021/08/18 08:31:02;;;;;;;8.30;3.27;;;;;;;14.58;79.87;98648.25;1796895;78;21627;-67
2021/08/18 08:33:29;;;;;;;35.27;7.77;;;;;;;14.61;79.60;98654.57;1773990;78;21067;-67
2021/08/18 08:35:56;;;;;;;13.70;5.65;;;;;;;14.59;79.58;98647.28;1810371;78;20939;-67
2021/08/18 08:38:23;;;;;;;43.30;19.23;;;;;;;14.62;79.60;98647.03;1812473;77;21523;-67
2021/08/18 08:40:50;;;;;;;113.88;29.80;;;;;;;14.67;79.63;98660.64;1791614;79;20967;-66
2021/08/18 08:43:19;;;;;;;23.22;8.25;;;;;;;14.70;79.53;98661.70;1779540;80;20970;-67
2021/08/18 08:45:47;;;;;;;22.35;10.25;;;;;;;14.85;79.64;98667.03;1793612;79;21318;-68
2021/08/18 08:48:16;;;;;;;11.33;5.72;;;;;;;15.04;79.53;98654.99;1809229;78;20992;-67
2021/08/18 08:50:45;;;;;;;16.95;8.43;;;;;;;15.20;79.27;98664.60;1801526;78;21596;-67
2021/08/18 08:53:12;;;;;;;10.75;5.20;;;;;;;15.36;79.26;98670.25;1806929;78;20904;-67
2021/08/18 08:55:41;;;;;;;12.63;5.03;;;;;;;15.51;79.14;98672.06;1782885;79;21721;-68
2021/08/18 08:58:07;;;;;;;8.05;4.75;;;;;;;15.68;78.98;98678.56;1806482;78;22419;-67
2021/08/18 09:00:36;;;;;;;12.37;4.62;;;;;;;15.97;78.93;98677.90;1807447;78;21072;-67
2021/08/18 09:03:15;;;;;;;8.03;4.65;;;;;;;16.20;78.92;98672.78;1763372;80;21387;-66
2021/08/18 09:05:44;;;;;;;17.95;7.10;;;;;;;16.53;78.77;98689.23;1778742;78;20934;-66
2021/08/18 09:08:18;;;;;;;23.05;6.45;;;;;;;16.89;78.28;98680.38;1770576;80;21005;-67
2021/08/18 09:11:11;;;;;;;10.45;4.67;;;;;;;16.91;77.85;98675.78;1792358;79;22014;-67
2021/08/18 09:13:53;;;;;;;10.53;5.08;;;;;;;16.94;77.47;98685.58;1802123;77;21496;-66
2021/08/18 09:16:37;;;;;;;11.57;5.40;;;;;;;16.91;77.20;98692.42;1789639;79;20974;-67
2021/08/18 09:19:03;;;;;;;23.42;8.20;;;;;;;16.89;77.02;98688.28;1782040;78;21029;-66
2021/08/18 09:21:40;;;;;;;14.05;4.97;;;;;;;16.88;77.20;98686.60;1771354;78;21095;-66
2021/08/18 09:25:38;;;;;;;14.00;4.58;;;;;;;17.05;76.82;98691.18;1859717;75;22635;-67
2021/08/18 09:28:09;;;;;;;8.25;3.98;;;;;;;17.09;76.79;98697.03;1831181;77;20926;-67
2021/08/18 09:30:40;;;;;;;9.40;5.10;;;;;;;17.14;76.18;98695.64;1834600;77;21077;-67
2021/08/18 09:33:16;;;;;;;7.00;4.25;;;;;;;17.31;76.59;98695.42;1834335;77;20973;-68
2021/08/18 09:35:47;;;;;;;15.78;5.00;;;;;;;17.72;76.68;98692.56;1840726;77;20940;-67
2021/08/18 09:38:15;;;;;;;17.65;7.28;;;;;;;18.24;76.68;98696.94;1836758;77;20957;-66
2021/08/18 09:40:46;;;;;;;28.65;9.73;;;;;;;18.54;75.38;98694.00;1837378;77;21546;-68
2021/08/18 09:43:24;;;;;;;19.45;8.18;;;;;;;18.67;75.27;98695.44;1836641;77;21066;-68
2021/08/18 09:46:05;;;;;;;13.00;5.75;;;;;;;18.45;74.26;98700.16;1832117;77;21579;-67
2021/08/18 09:48:34;;;;;;;8.13;4.28;;;;;;;17.88;73.67;98703.40;1829964;77;20923;-70
2021/08/18 09:51:09;;;;;;;8.90;4.40;;;;;;;17.40;74.06;98716.17;1828151;77;20917;-67
2021/08/18 09:53:39;;;;;;;18.05;5.42;;;;;;;17.25;74.63;98714.92;1832283;76;20952;-67
2021/08/18 09:56:12;;;;;;;8.18;4.08;;;;;;;17.45;74.91;98725.34;1830463;77;21149;-66
2021/08/18 09:58:50;;;;;;;10.48;5.12;;;;;;;17.47;74.31;98717.27;1834273;77;20906;-67
2021/08/18 10:01:20;;;;;;;11.45;3.95;;;;;;;17.37;74.35;98704.59;1834553;77;21021;-67
2021/08/18 10:03:50;;;;;;;9.55;4.72;;;;;;;17.50;74.11;98702.46;1836507;77;20994;-66
2021/08/18 10:06:18;;;;;;;6.35;4.50;;;;;;;17.36;73.46;98709.50;1786123;79;21088;-64
2021/08/18 10:08:51;;;;;;;7.83;3.95;;;;;;;17.08;73.24;98708.05;1799310;78;21084;-64
2021/08/18 10:11:18;;;;;;;7.25;4.10;;;;;;;16.83;73.31;98703.31;1777196;78;21018;-64
2021/08/18 10:13:45;;;;;;;8.95;4.33;;;;;;;16.65;73.58;98711.86;1762201;80;21032;-64
2021/08/18 10:16:13;;;;;;;7.72;4.65;;;;;;;16.51;73.36;98714.88;1774176;79;21481;-64
2021/08/18 10:18:43;;;;;;;12.75;4.17;;;;;;;16.32;73.39;98709.89;1771432;78;21480;-64
2021/08/18 10:21:26;;;;;;;4.40;3.33;;;;;;;16.25;73.51;98711.41;1754049;80;21177;-64
2021/08/18 10:24:06;;;;;;;7.42;4.05;;;;;;;16.25;73.62;98708.77;1771192;79;20950;-63
2021/08/18 10:26:38;;;;;;;9.55;3.83;;;;;;;16.41;73.82;98714.00;1757423;79;21451;-64
2021/08/18 10:29:16;;;;;;;9.20;4.05;;;;;;;16.69;73.78;98706.68;1746668;81;21013;-64
2021/08/18 10:31:48;;;;;;;8.45;3.75;;;;;;;16.90;73.30;98716.30;1765642;79;21476;-64
2021/08/18 10:34:40;;;;;;;9.25;4.10;;;;;;;17.07;73.37;98710.34;1763155;79;21480;-65
2021/08/18 10:37:23;;;;;;;9.80;4.37;;;;;;;17.22;73.13;98714.25;1762824;79;21050;-64
2021/08/18 10:39:53;;;;;;;7.45;4.25;;;;;;;17.36;72.92;98705.54;1751802;80;20994;-64
2021/08/18 10:42:37;;;;;;;24.67;6.45;;;;;;;17.48;72.57;98716.31;1755641;80;21503;-64
2021/08/18 10:45:26;;;;;;;21.50;6.25;;;;;;;17.45;72.61;98713.95;1750216;81;21316;-63
2021/08/18 10:47:56;;;;;;;16.40;4.58;;;;;;;17.54;72.53;98709.14;1754366;80;21175;-63
2021/08/18 10:50:27;;;;;;;16.25;5.80;;;;;;;17.40;71.94;98710.90;1741923;81;20911;-63
2021/08/18 10:52:55;;;;;;;25.10;6.90;;;;;;;17.33;72.20;98719.02;1746616;81;21570;-64
2021/08/18 10:55:47;;;;;;;27.58;7.30;;;;;;;17.27;71.93;98715.63;1736449;80;20986;-64
2021/08/18 10:58:31;;;;;;;18.57;5.65;;;;;;;17.25;71.87;98704.37;1708034;82;21104;-64
2021/08/18 11:00:58;;;;;;;21.97;7.40;;;;;;;17.49;72.05;98714.00;1692146;83;21962;-64
2021/08/18 11:03:27;;;;;;;11.05;4.28;;;;;;;18.01;72.22;98699.09;1689728;83;21036;-67
2021/08/18 11:05:55;;;;;;;12.82;4.15;;;;;;;18.44;71.44;98701.14;1709973;82;21035;-66
2021/08/18 11:08:40;;;;;;;61.23;17.75;;;;;;;18.80;71.53;98711.82;1692226;83;21016;-66
2021/08/18 11:11:20;;;;;;;18.17;8.85;;;;;;;19.08;70.97;98715.23;1676668;81;21283;-66
2021/08/18 11:14:08;;;;;;;8.75;4.22;;;;;;;19.33;71.29;98707.02;1684905;83;21054;-67
2021/08/18 11:16:36;;;;;;;13.90;4.60;;;;;;;19.78;70.74;98715.32;1709947;82;21170;-69
2021/08/18 11:19:09;;;;;;;;;;;;;;;19.78;69.37;98707.38;1724522;80;20954;-68
2021/08/18 11:21:44;;;;;;;10.82;4.70;;;;;;;19.84;69.50;98701.45;1698041;83;20169;-68
2021/08/18 11:24:17;;;;;;;26.05;5.87;;;;;;;19.98;69.63;98698.72;1689469;83;21997;-68
2021/08/18 11:26:46;;;;;;;28.12;5.75;;;;;;;20.11;69.30;98699.63;1691572;83;22124;-70
2021/08/18 11:29:20;;;;;;;101.85;22.77;;;;;;;20.22;68.77;98703.79;1711662;82;21061;-70
2021/08/18 11:31:53;;;;;;;20.23;6.45;;;;;;;20.16;68.55;98712.37;1710776;82;21105;-71
2021/08/18 11:34:40;;;;;;;16.12;6.78;;;;;;;20.08;68.62;98715.34;1691425;82;20984;-71
2021/08/18 11:37:09;;;;;;;12.60;4.30;;;;;;;19.92;67.75;98718.39;1722968;80;21016;-68
2021/08/18 11:39:40;;;;;;;9.03;3.62;;;;;;;19.52;66.95;98722.38;1710608;82;21173;-70
2021/08/18 11:42:20;;;;;;;14.93;6.03;;;;;;;19.12;67.21;98730.31;1713227;82;21089;-70
2021/08/18 11:45:15;;;;;;;8.80;4.50;;;;;;;18.77;67.05;98725.34;1667849;82;21510;-70